createdAt,value
2023-09-09T00:00:40.196Z,78.07
2023-09-09T00:03:08.103Z,77.99
2023-09-09T00:05:34.971Z,78.13
2023-09-09T00:08:01.765Z,78.07
2023-09-09T00:10:28.720Z,78.30
2023-09-09T00:12:55.504Z,78.09
2023-09-09T00:15:22.388Z,78.09
2023-09-09T00:17:49.209Z,78.22
2023-09-09T00:20:15.959Z,78.03
2023-09-09T00:22:42.708Z,77.82
2023-09-09T00:25:09.686Z,77.85
2023-09-09T00:27:36.381Z,77.43
2023-09-09T00:30:03.962Z,77.35
2023-09-09T00:32:30.764Z,77.73
2023-09-09T00:34:57.536Z,77.76
2023-09-09T00:37:24.275Z,77.89
2023-09-09T00:39:51.127Z,78.12
2023-09-09T00:42:17.878Z,78.36
2023-09-09T00:44:44.714Z,78.47
2023-09-09T00:47:11.716Z,78.81
2023-09-09T00:49:39.069Z,79.18
2023-09-09T00:52:06.323Z,78.86
2023-09-09T00:54:34.083Z,78.55
2023-09-09T00:57:01.858Z,78.26
2023-09-09T00:59:28.679Z,78.61
2023-09-09T01:01:58.050Z,78.30
2023-09-09T01:04:25.080Z,78.80
2023-09-09T01:06:53.415Z,78.36
2023-09-09T01:09:20.173Z,78.38
2023-09-09T01:11:46.929Z,78.41
2023-09-09T01:14:14.333Z,78.10
2023-09-09T01:16:42.924Z,77.83
2023-09-09T01:19:13.932Z,78.09
2023-09-09T01:21:41.526Z,78.14
2023-09-09T01:24:08.171Z,78.08
2023-09-09T01:26:34.771Z,77.98
2023-09-09T01:29:01.347Z,77.73
2023-09-09T01:31:27.891Z,77.86
2023-09-09T01:33:57.837Z,77.78
2023-09-09T01:36:24.712Z,77.48
2023-09-09T01:38:51.684Z,77.53
2023-09-09T01:41:18.230Z,77.10
2023-09-09T01:43:44.770Z,77.56
2023-09-09T01:46:11.497Z,77.35
2023-09-09T01:48:38.343Z,78.00
2023-09-09T01:51:04.890Z,78.33
2023-09-09T01:53:31.410Z,78.52
2023-09-09T01:55:59.467Z,78.66
2023-09-09T01:58:26.043Z,78.41
2023-09-09T02:00:52.559Z,78.76
2023-09-09T02:03:19.192Z,79.14
2023-09-09T02:05:46.559Z,79.17
2023-09-09T02:08:13.190Z,79.35
2023-09-09T02:10:40.606Z,79.59
2023-09-09T02:13:07.224Z,79.45
2023-09-09T02:15:33.786Z,79.47
2023-09-09T02:18:00.385Z,79.72
2023-09-09T02:20:26.959Z,79.40
2023-09-09T02:22:53.490Z,79.60
2023-09-09T02:25:20.023Z,79.59
2023-09-09T02:27:46.561Z,79.51
2023-09-09T02:30:13.160Z,79.74
2023-09-09T02:32:40.161Z,79.56
2023-09-09T02:35:09.198Z,79.37
2023-09-09T02:37:36.388Z,78.61
2023-09-09T02:40:04.844Z,78.75
2023-09-09T02:42:31.366Z,78.79
2023-09-09T02:44:57.992Z,79.17
2023-09-09T02:47:24.611Z,79.35
2023-09-09T02:49:51.867Z,79.74
2023-09-09T02:52:20.180Z,79.77
2023-09-09T02:54:46.735Z,80.09
2023-09-09T02:57:13.259Z,80.19
2023-09-09T02:59:39.773Z,80.48
2023-09-09T03:02:06.863Z,80.63
2023-09-09T03:04:33.424Z,80.44
2023-09-09T03:07:00.017Z,79.97
2023-09-09T03:09:27.258Z,79.80
2023-09-09T03:11:55.106Z,80.13
2023-09-09T03:14:21.837Z,79.78
2023-09-09T03:16:48.776Z,79.97
2023-09-09T03:19:15.513Z,80.40
2023-09-09T03:21:42.085Z,80.54
2023-09-09T03:24:09.040Z,80.33
2023-09-09T03:26:35.704Z,80.15
2023-09-09T03:29:02.258Z,80.14
2023-09-09T03:31:28.865Z,79.42
2023-09-09T03:33:55.431Z,79.73
2023-09-09T03:36:21.979Z,79.48
2023-09-09T03:38:48.491Z,79.04
2023-09-09T03:41:15.086Z,79.01
2023-09-09T03:43:42.151Z,79.23
2023-09-09T03:46:09.028Z,79.09
2023-09-09T03:48:35.725Z,79.35
2023-09-09T03:51:03.792Z,80.06
2023-09-09T03:53:30.705Z,79.94
2023-09-09T03:56:00.480Z,79.76
2023-09-09T03:58:27.349Z,80.30
2023-09-09T04:01:07.311Z,80.04
2023-09-09T04:03:36.413Z,79.92
2023-09-09T04:06:07.222Z,80.34
2023-09-09T04:08:34.606Z,79.98
2023-09-09T04:11:01.360Z,80.51
2023-09-09T04:13:28.215Z,80.61
2023-09-09T04:15:55.681Z,80.54
2023-09-09T04:18:34.052Z,80.31
2023-09-09T04:21:05.143Z,80.49
2023-09-09T04:23:31.811Z,80.17
2023-09-09T04:25:58.342Z,80.31
2023-09-09T04:28:27.377Z,80.79
2023-09-09T04:30:53.927Z,81.14
2023-09-09T04:33:20.439Z,80.66
2023-09-09T04:35:46.985Z,81.06
2023-09-09T04:38:13.539Z,80.97
2023-09-09T04:40:41.878Z,80.60
2023-09-09T04:43:08.448Z,80.19
2023-09-09T04:45:35.082Z,81.27
2023-09-09T04:48:02.844Z,80.96
2023-09-09T04:50:29.625Z,80.94
2023-09-09T04:52:56.171Z,80.81
2023-09-09T04:55:22.765Z,80.75
2023-09-09T04:57:49.306Z,80.82
2023-09-09T05:00:15.950Z,80.62
2023-09-09T05:02:42.547Z,80.51
2023-09-09T05:05:10.364Z,80.56
2023-09-09T05:07:37.543Z,80.43
2023-09-09T05:10:07.943Z,81.11
2023-09-09T05:12:35.490Z,81.22
2023-09-09T05:15:02.051Z,81.01
2023-09-09T05:17:29.000Z,81.09
2023-09-09T05:19:55.771Z,80.37
2023-09-09T05:22:22.495Z,80.25
2023-09-09T05:24:49.260Z,80.58
2023-09-09T05:27:15.984Z,80.10
2023-09-09T05:29:44.243Z,80.29
2023-09-09T05:32:11.036Z,79.89
2023-09-09T05:34:37.974Z,80.25
2023-09-09T05:37:04.902Z,80.07
2023-09-09T05:39:31.585Z,80.13
2023-09-09T05:41:58.326Z,80.58
2023-09-09T05:44:25.019Z,80.31
2023-09-09T05:46:51.804Z,80.21
2023-09-09T05:49:32.025Z,80.05
2023-09-09T05:52:03.335Z,79.96
2023-09-09T05:54:30.035Z,79.51
2023-09-09T05:56:58.037Z,79.26
2023-09-09T05:59:24.910Z,79.01
2023-09-09T06:01:51.697Z,78.67
2023-09-09T06:04:18.454Z,78.30
2023-09-09T06:06:46.230Z,78.60
2023-09-09T06:09:13.196Z,78.39
2023-09-09T06:11:40.093Z,78.54
2023-09-09T06:14:06.922Z,78.72
2023-09-09T06:16:33.793Z,78.83
2023-09-09T06:19:00.569Z,78.95
2023-09-09T06:21:27.284Z,79.21
2023-09-09T06:23:53.805Z,79.32
2023-09-09T06:26:20.339Z,79.58
2023-09-09T06:28:46.890Z,79.65
2023-09-09T06:31:13.501Z,79.78
2023-09-09T06:33:43.937Z,79.67
2023-09-09T06:36:11.341Z,79.76
2023-09-09T06:38:38.007Z,80.24
2023-09-09T06:41:04.575Z,80.09
2023-09-09T06:43:31.246Z,80.14
2023-09-09T06:45:58.178Z,80.31
2023-09-09T06:48:24.992Z,79.95
2023-09-09T06:50:52.324Z,80.10
2023-09-09T06:53:19.050Z,80.20
2023-09-09T06:55:46.643Z,80.46
2023-09-09T06:58:16.338Z,80.49
2023-09-09T07:00:52.897Z,80.86
2023-09-09T07:03:20.941Z,80.72
2023-09-09T07:05:47.795Z,80.85
2023-09-09T07:08:14.454Z,81.46
2023-09-09T07:10:49.399Z,81.85
2023-09-09T07:13:15.984Z,81.71
2023-09-09T07:15:42.538Z,82.08
2023-09-09T07:18:09.249Z,82.99
2023-09-09T07:20:35.796Z,82.49
2023-09-09T07:23:02.411Z,82.66
2023-09-09T07:25:29.069Z,83.60
2023-09-09T07:27:55.650Z,83.23
2023-09-09T07:30:22.278Z,83.69
2023-09-09T07:32:48.950Z,83.74
2023-09-09T07:35:15.646Z,83.59
2023-09-09T07:37:42.690Z,84.26
2023-09-09T07:40:10.172Z,84.02
2023-09-09T07:42:36.669Z,84.18
2023-09-09T07:45:03.411Z,84.25
2023-09-09T07:47:30.172Z,83.65
2023-09-09T07:49:56.730Z,84.15
2023-09-09T07:52:24.050Z,83.59
2023-09-09T07:54:52.887Z,83.25
2023-09-09T07:57:19.411Z,82.83
2023-09-09T07:59:46.012Z,82.89
2023-09-09T08:02:14.293Z,83.12
2023-09-09T08:04:40.973Z,82.61
2023-09-09T08:07:07.528Z,82.30
2023-09-09T08:09:36.321Z,82.07
2023-09-09T08:12:02.878Z,81.53
2023-09-09T08:14:30.754Z,80.23
2023-09-09T08:16:57.544Z,79.69
2023-09-09T08:19:24.370Z,79.99
2023-09-09T08:21:51.167Z,79.94
2023-09-09T08:24:17.978Z,79.60
2023-09-09T08:26:44.690Z,79.31
2023-09-09T08:29:11.685Z,78.50
2023-09-09T08:31:38.788Z,78.22
2023-09-09T08:34:06.635Z,77.58
2023-09-09T08:36:33.558Z,76.74
2023-09-09T08:39:00.513Z,75.36
2023-09-09T08:41:42.698Z,73.92
2023-09-09T08:44:26.684Z,71.88
2023-09-09T08:46:54.401Z,68.24
2023-09-09T08:49:24.348Z,67.48
2023-09-09T08:51:58.161Z,67.90
2023-09-09T08:54:26.772Z,68.04
2023-09-09T08:56:53.868Z,64.79
2023-09-09T08:59:22.317Z,64.15
2023-09-09T09:01:50.399Z,63.52
2023-09-09T09:04:19.320Z,63.27
2023-09-09T09:06:49.422Z,64.73
2023-09-09T09:09:19.988Z,64.82
2023-09-09T09:11:46.882Z,64.91
2023-09-09T09:14:13.588Z,64.72
2023-09-09T09:16:41.834Z,63.87
2023-09-09T09:19:18.431Z,64.88
2023-09-09T09:21:45.325Z,65.48
2023-09-09T09:24:12.041Z,63.29
2023-09-09T09:26:39.033Z,61.84
2023-09-09T09:29:05.966Z,60.88
2023-09-09T09:31:33.645Z,60.28
2023-09-09T09:34:00.825Z,61.08
2023-09-09T09:36:28.298Z,59.88
2023-09-09T09:38:56.508Z,58.01
2023-09-09T09:41:23.950Z,58.12
2023-09-09T09:43:51.822Z,53.94
2023-09-09T09:46:21.210Z,54.35
2023-09-09T09:48:48.875Z,56.20
2023-09-09T09:51:15.977Z,58.22
2023-09-09T09:53:48.701Z,56.08
2023-09-09T09:56:19.562Z,52.97
2023-09-09T09:58:48.075Z,51.95
2023-09-09T10:01:15.197Z,52.21
2023-09-09T10:03:50.890Z,54.09
2023-09-09T10:06:25.943Z,51.10
2023-09-09T10:09:01.823Z,52.05
2023-09-09T10:11:32.727Z,53.64
2023-09-09T10:14:02.545Z,52.41
2023-09-09T10:16:30.616Z,52.46
2023-09-09T10:18:58.312Z,50.98
2023-09-09T10:21:41.410Z,51.06
2023-09-09T10:24:10.435Z,50.08
2023-09-09T10:26:38.459Z,50.20
2023-09-09T10:29:06.806Z,48.41
2023-09-09T10:31:43.003Z,45.51
2023-09-09T10:34:10.607Z,45.71
2023-09-09T10:36:50.770Z,47.52
2023-09-09T10:39:25.339Z,45.06
2023-09-09T10:41:53.414Z,44.70
2023-09-09T10:44:20.221Z,45.71
2023-09-09T10:46:47.669Z,46.14
2023-09-09T10:49:17.894Z,46.22
2023-09-09T10:51:52.879Z,46.17
2023-09-09T10:54:22.367Z,45.90
2023-09-09T10:56:53.996Z,47.50
2023-09-09T10:59:25.612Z,48.39
2023-09-09T11:02:11.004Z,47.61
2023-09-09T11:04:41.777Z,44.83
2023-09-09T11:07:10.855Z,44.39
2023-09-09T11:09:38.273Z,42.76
2023-09-09T11:12:13.043Z,44.11
2023-09-09T11:14:47.166Z,44.49
2023-09-09T11:17:14.737Z,44.51
2023-09-09T11:19:43.167Z,44.04
2023-09-09T11:22:11.761Z,42.96
2023-09-09T11:24:38.931Z,42.53
2023-09-09T11:27:06.922Z,42.77
2023-09-09T11:29:37.424Z,43.55
2023-09-09T11:32:11.294Z,43.14
2023-09-09T11:34:38.126Z,42.67
2023-09-09T11:37:05.714Z,43.75
2023-09-09T11:39:40.485Z,45.07
2023-09-09T11:42:07.101Z,44.96
2023-09-09T11:44:41.164Z,45.32
2023-09-09T11:47:08.689Z,45.03
2023-09-09T11:49:39.095Z,45.31
2023-09-09T11:52:05.912Z,45.99
2023-09-09T11:54:32.502Z,46.63
2023-09-09T11:57:09.440Z,45.67
2023-09-09T11:59:47.353Z,46.44
2023-09-09T12:02:25.425Z,45.79
2023-09-09T12:05:02.848Z,45.89
2023-09-09T12:07:35.185Z,46.50
2023-09-09T12:10:06.412Z,46.65
2023-09-09T12:12:33.399Z,46.03
2023-09-09T12:15:02.210Z,45.27
2023-09-09T12:17:29.332Z,43.91
2023-09-09T12:20:00.015Z,42.58
2023-09-09T12:22:54.141Z,42.15
2023-09-09T12:25:31.544Z,41.54
2023-09-09T12:27:58.551Z,39.77
2023-09-09T12:30:39.782Z,40.11
2023-09-09T12:33:14.468Z,40.25
2023-09-09T12:35:46.915Z,40.23
2023-09-09T12:38:15.793Z,41.01
2023-09-09T12:40:49.451Z,40.66
2023-09-09T12:43:18.329Z,41.84
2023-09-09T12:45:48.749Z,41.44
2023-09-09T12:48:15.354Z,43.49
2023-09-09T12:50:43.207Z,43.46
2023-09-09T12:53:11.772Z,43.36
2023-09-09T12:55:38.919Z,42.59
2023-09-09T12:58:05.702Z,43.87
2023-09-09T13:00:32.891Z,44.16
2023-09-09T13:02:59.702Z,44.25
2023-09-09T13:05:26.663Z,44.96
2023-09-09T13:07:53.375Z,44.55
2023-09-09T13:10:20.305Z,44.50
2023-09-09T13:12:47.449Z,44.95
2023-09-09T13:15:14.794Z,45.43
2023-09-09T13:17:41.865Z,44.51
2023-09-09T13:20:09.129Z,44.87
2023-09-09T13:22:35.973Z,45.20
2023-09-09T13:25:03.277Z,45.63
2023-09-09T13:27:30.946Z,46.31
2023-09-09T13:29:57.751Z,46.43
2023-09-09T13:32:24.540Z,46.05
2023-09-09T13:34:51.359Z,46.02
2023-09-09T13:37:18.191Z,46.45
2023-09-09T13:39:46.167Z,46.95
2023-09-09T13:42:12.952Z,47.13
2023-09-09T13:44:48.833Z,47.11
2023-09-09T13:47:26.808Z,47.60
2023-09-09T13:49:53.596Z,47.55
2023-09-09T13:52:20.468Z,47.75
2023-09-09T13:54:47.938Z,48.35
2023-09-09T13:57:14.734Z,48.10
2023-09-09T13:59:42.969Z,47.89
2023-09-09T14:02:09.965Z,47.88
2023-09-09T14:04:37.308Z,47.94
2023-09-09T14:07:04.820Z,47.52
2023-09-09T14:09:31.545Z,47.51
2023-09-09T14:11:58.301Z,47.82
2023-09-09T14:14:25.017Z,47.80
2023-09-09T14:16:51.985Z,47.94
2023-09-09T14:19:19.053Z,48.39
2023-09-09T14:21:45.763Z,48.17
2023-09-09T14:24:12.641Z,48.15
2023-09-09T14:26:39.453Z,49.18
2023-09-09T14:29:08.849Z,49.57
2023-09-09T14:31:35.578Z,49.74
2023-09-09T14:34:02.276Z,49.77
2023-09-09T14:36:29.139Z,49.80
2023-09-09T14:38:55.852Z,49.70
2023-09-09T14:41:22.604Z,49.94
2023-09-09T14:43:49.387Z,50.41
2023-09-09T14:46:16.187Z,50.34
2023-09-09T14:49:03.958Z,50.59
2023-09-09T14:51:35.333Z,51.00
2023-09-09T14:54:03.793Z,51.24
2023-09-09T14:56:31.062Z,50.65
2023-09-09T14:58:58.143Z,51.07
2023-09-09T15:01:24.784Z,51.12
2023-09-09T15:03:51.612Z,51.16
2023-09-09T15:06:18.324Z,50.85
2023-09-09T15:08:44.927Z,51.43
2023-09-09T15:11:11.471Z,51.14
2023-09-09T15:13:37.981Z,51.22
2023-09-09T15:16:06.783Z,51.42
2023-09-09T15:18:35.121Z,51.94
2023-09-09T15:21:02.591Z,51.90
2023-09-09T15:23:29.367Z,52.20
2023-09-09T15:25:55.982Z,52.12
2023-09-09T15:28:22.758Z,51.82
2023-09-09T15:30:53.679Z,52.86
2023-09-09T15:33:20.461Z,53.19
2023-09-09T15:35:47.073Z,53.50
2023-09-09T15:38:13.741Z,53.69
2023-09-09T15:40:41.549Z,54.40
2023-09-09T15:43:08.159Z,54.36
2023-09-09T15:45:34.680Z,54.25
2023-09-09T15:48:04.278Z,54.21
2023-09-09T15:50:31.065Z,54.62
2023-09-09T15:52:57.582Z,54.98
2023-09-09T15:55:24.095Z,54.85
2023-09-09T15:57:50.675Z,55.49
2023-09-09T16:00:17.366Z,55.52
2023-09-09T16:02:44.161Z,56.75
2023-09-09T16:05:10.881Z,57.09
2023-09-09T16:07:39.315Z,57.43
2023-09-09T16:10:06.834Z,57.92
2023-09-09T16:12:33.710Z,58.18
2023-09-09T16:15:00.471Z,58.63
2023-09-09T16:17:29.583Z,59.10
2023-09-09T16:19:56.961Z,59.47
2023-09-09T16:22:23.729Z,59.07
2023-09-09T16:24:50.417Z,59.17
2023-09-09T16:27:16.911Z,59.29
2023-09-09T16:29:43.479Z,59.54
2023-09-09T16:32:10.122Z,59.79
2023-09-09T16:34:36.840Z,60.37
2023-09-09T16:37:04.372Z,60.45
2023-09-09T16:39:30.923Z,60.53
2023-09-09T16:41:57.532Z,61.02
2023-09-09T16:44:24.064Z,61.79
2023-09-09T16:46:50.984Z,61.90
2023-09-09T16:49:17.680Z,62.30
2023-09-09T16:51:44.320Z,62.46
2023-09-09T16:54:11.043Z,62.47
2023-09-09T16:56:37.855Z,62.81
2023-09-09T16:59:04.750Z,62.97
2023-09-09T17:01:33.416Z,63.39
2023-09-09T17:04:00.381Z,63.49
2023-09-09T17:06:27.156Z,63.89
2023-09-09T17:08:53.871Z,63.99
2023-09-09T17:11:23.252Z,64.25
2023-09-09T17:13:50.051Z,64.09
2023-09-09T17:16:16.916Z,64.26
2023-09-09T17:18:43.758Z,64.47
2023-09-09T17:21:11.366Z,64.70
2023-09-09T17:23:38.287Z,64.45
2023-09-09T17:26:09.001Z,64.83
2023-09-09T17:28:36.150Z,64.70
2023-09-09T17:31:03.833Z,64.79
2023-09-09T17:33:30.720Z,65.10
2023-09-09T17:35:57.539Z,64.98
2023-09-09T17:38:24.263Z,65.27
2023-09-09T17:40:51.123Z,65.41
2023-09-09T17:43:17.871Z,65.68
2023-09-09T17:45:44.669Z,65.68
2023-09-09T17:48:11.505Z,65.96
2023-09-09T17:50:38.628Z,65.98
2023-09-09T17:53:05.547Z,66.18
2023-09-09T17:55:32.500Z,66.43
2023-09-09T17:57:59.289Z,66.59
2023-09-09T18:00:26.074Z,66.83
2023-09-09T18:02:52.833Z,67.51
2023-09-09T18:05:19.771Z,67.61
2023-09-09T18:07:46.630Z,67.51
2023-09-09T18:10:13.701Z,67.62
2023-09-09T18:12:40.429Z,67.70
2023-09-09T18:15:07.642Z,67.66
2023-09-09T18:17:34.554Z,67.71
2023-09-09T18:20:01.920Z,68.34
2023-09-09T18:22:28.832Z,68.38
2023-09-09T18:24:55.643Z,68.59
2023-09-09T18:27:22.394Z,68.39
2023-09-09T18:29:52.027Z,68.84
2023-09-09T18:32:18.802Z,69.30
2023-09-09T18:34:45.565Z,69.00
2023-09-09T18:37:12.394Z,69.17
2023-09-09T18:39:40.261Z,69.26
2023-09-09T18:42:07.029Z,69.30
2023-09-09T18:44:33.767Z,69.54
2023-09-09T18:47:00.684Z,69.82
2023-09-09T18:49:28.456Z,69.81
2023-09-09T18:51:56.036Z,70.04
2023-09-09T18:54:22.873Z,70.45
2023-09-09T18:56:51.676Z,70.54
2023-09-09T18:59:20.023Z,70.50
2023-09-09T19:01:47.056Z,70.73
2023-09-09T19:04:14.019Z,71.16
2023-09-09T19:06:40.832Z,71.17
2023-09-09T19:09:07.571Z,71.12
2023-09-09T19:11:34.311Z,70.95
2023-09-09T19:14:01.928Z,70.91
2023-09-09T19:16:28.777Z,70.95
2023-09-09T19:18:55.821Z,70.88
2023-09-09T19:21:24.069Z,70.93
2023-09-09T19:23:50.883Z,71.09
2023-09-09T19:26:17.625Z,71.14
2023-09-09T19:28:44.593Z,71.52
2023-09-09T19:31:12.397Z,71.90
2023-09-09T19:33:56.997Z,72.14
2023-09-09T19:36:24.026Z,71.93
2023-09-09T19:38:50.850Z,72.10
2023-09-09T19:41:17.576Z,72.12
2023-09-09T19:43:44.274Z,72.28
2023-09-09T19:46:11.067Z,72.35
2023-09-09T19:48:38.029Z,72.56
2023-09-09T19:51:04.918Z,72.58
2023-09-09T19:53:31.868Z,72.77
2023-09-09T19:55:58.655Z,73.02
2023-09-09T19:58:25.581Z,73.18
2023-09-09T20:00:52.441Z,73.03
2023-09-09T20:03:19.295Z,73.29
2023-09-09T20:05:50.035Z,73.58
2023-09-09T20:08:16.718Z,73.77
2023-09-09T20:10:46.394Z,73.58
2023-09-09T20:13:13.164Z,74.00
2023-09-09T20:15:40.279Z,73.84
2023-09-09T20:18:09.941Z,73.88
2023-09-09T20:20:39.477Z,74.11
2023-09-09T20:23:06.253Z,74.04
2023-09-09T20:25:33.018Z,73.98
2023-09-09T20:27:59.766Z,74.36
2023-09-09T20:30:26.953Z,74.11
2023-09-09T20:32:53.847Z,74.39
2023-09-09T20:37:52.735Z,74.31
2023-09-09T20:40:21.930Z,74.67
2023-09-09T20:42:56.462Z,74.63
2023-09-09T20:45:24.960Z,74.43
2023-09-09T20:47:52.467Z,74.63
2023-09-09T20:50:22.502Z,74.75
2023-09-09T20:52:50.791Z,74.72
2023-09-09T20:55:19.129Z,74.88
2023-09-09T20:57:46.015Z,74.95
2023-09-09T21:00:14.408Z,74.68
2023-09-09T21:02:43.243Z,74.73
2023-09-09T21:05:10.141Z,74.99
2023-09-09T21:07:37.004Z,75.08
2023-09-09T21:10:07.518Z,75.24
2023-09-09T21:12:34.228Z,75.39
2023-09-09T21:15:01.204Z,75.27
2023-09-09T21:17:28.102Z,75.62
2023-09-09T21:19:55.874Z,75.52
2023-09-09T21:22:23.061Z,75.30
2023-09-09T21:24:49.812Z,75.53
2023-09-09T21:27:16.570Z,75.66
2023-09-09T21:29:43.322Z,75.53
2023-09-09T21:32:10.208Z,75.63
2023-09-09T21:34:37.139Z,75.90
2023-09-09T21:37:04.536Z,76.17
2023-09-09T21:39:31.604Z,76.41
2023-09-09T21:41:58.336Z,76.52
2023-09-09T21:44:25.039Z,76.29
2023-09-09T21:46:51.873Z,76.58
2023-09-09T21:49:18.693Z,76.79
2023-09-09T21:51:46.698Z,76.84
2023-09-09T21:54:13.425Z,76.77
2023-09-09T21:56:40.154Z,76.76
2023-09-09T21:59:06.857Z,77.00
2023-09-09T22:01:33.650Z,77.29
2023-09-09T22:04:00.427Z,77.07
2023-09-09T22:06:27.253Z,76.81
2023-09-09T22:08:54.008Z,76.82
2023-09-09T22:11:20.705Z,76.58
2023-09-09T22:13:47.438Z,76.68
2023-09-09T22:16:14.471Z,76.68
2023-09-09T22:18:41.913Z,76.77
2023-09-09T22:21:09.060Z,76.66
2023-09-09T22:23:36.215Z,76.75
2023-09-09T22:26:05.051Z,76.82
2023-09-09T22:28:34.087Z,76.99
2023-09-09T22:31:00.833Z,76.95
2023-09-09T22:33:27.544Z,76.84
2023-09-09T22:35:54.381Z,76.98
2023-09-09T22:38:21.115Z,77.10
2023-09-09T22:40:47.891Z,77.18
2023-09-09T22:43:23.670Z,77.43
2023-09-09T22:45:50.436Z,77.22
2023-09-09T22:48:17.198Z,77.52
2023-09-09T22:50:43.905Z,77.94
2023-09-09T22:53:10.675Z,77.65
2023-09-09T22:55:37.466Z,77.66
2023-09-09T22:58:04.434Z,77.73
2023-09-09T23:00:31.412Z,77.88
2023-09-09T23:02:58.868Z,78.42
2023-09-09T23:05:26.690Z,78.62
2023-09-09T23:07:53.378Z,78.93
2023-09-09T23:10:20.450Z,79.01
2023-09-09T23:12:47.089Z,78.98
2023-09-09T23:15:13.604Z,79.28
2023-09-09T23:17:40.141Z,79.24
2023-09-09T23:20:07.254Z,79.29
2023-09-09T23:22:33.877Z,79.69
2023-09-09T23:25:00.608Z,79.59
2023-09-09T23:27:27.250Z,79.71
2023-09-09T23:29:53.766Z,80.10
2023-09-09T23:32:20.454Z,80.31
2023-09-09T23:34:47.450Z,80.39
2023-09-09T23:37:14.034Z,80.27
2023-09-09T23:39:40.533Z,80.23
2023-09-09T23:42:07.169Z,80.35
2023-09-09T23:44:33.693Z,80.50
2023-09-09T23:47:00.309Z,80.43
2023-09-09T23:49:26.923Z,80.76
2023-09-09T23:51:53.413Z,80.96
2023-09-09T23:54:19.963Z,81.00
2023-09-09T23:56:46.547Z,81.23
2023-09-09T23:59:13.231Z,81.11
